Time;durP1;ratioP1;P1;durP2;ratioP2;P2;SDS_P1;SDS_P2;PMS_P1;PMS_P2;Temp;Humidity;BMP_temperature;BMP_pressure;BME280_temperature;BME280_humidity;BME280_pressure;Samples;Min_cycle;Max_cycle;Signal;HPM_P1;HPM_P2
2023/01/30 00:00:16;;;;;;;;;;;4.80;92.10;;;3.65;76.90;100796.94;6152606;23;19931;-80
2023/01/30 00:02:43;;;;;;;;;;;4.70;92.40;;;3.64;76.91;100795.28;6154249;23;20459;-80
2023/01/30 00:05:10;;;;;;;;;;;4.80;92.20;;;3.67;77.45;100811.63;6152379;23;19927;-81
2023/01/30 00:07:38;;;;;;;;;;;4.80;92.50;;;3.66;77.34;100827.59;6153987;23;19916;-80
2023/01/30 00:10:06;;;;;;;;;;;4.80;92.60;;;3.70;77.64;100828.94;6154739;23;19947;-80
2023/01/30 00:12:33;;;;;;;;;;;4.80;92.60;;;3.72;77.12;100829.63;6154294;23;19920;-80
2023/01/30 00:15:00;;;;;;;;;;;4.80;92.60;;;3.72;77.22;100808.53;6152070;23;20005;-80
2023/01/30 00:17:27;;;;;;;;;;;4.80;92.70;;;3.74;77.47;100803.91;6153368;23;19916;-80
2023/01/30 00:19:54;;;;;;;;;;;4.80;92.90;;;3.72;77.70;100803.25;6154097;23;19921;-80
2023/01/30 00:22:21;;;;;;;;;;;4.80;92.90;;;3.74;77.96;100801.28;6152157;23;20336;-80
2023/01/30 00:24:49;;;;;;;;;;;4.80;92.80;;;3.75;78.10;100801.09;6154061;23;19916;-80
2023/01/30 00:27:16;;;;;;;;;;;4.80;93.10;;;3.77;77.86;100796.50;6153308;23;19946;-80
2023/01/30 00:29:43;;;;;;;;;;;4.90;93.20;;;3.77;77.83;100785.13;6152409;23;19999;-81
2023/01/30 00:32:10;;;;;;;;;;;4.90;93.20;;;3.74;78.33;100778.34;6152552;23;19940;-80
2023/01/30 00:34:40;;;;;;;;;;;4.90;93.50;;;3.75;78.19;100766.00;6152560;23;19927;-80
2023/01/30 00:37:08;;;;;;;;;;;4.90;93.40;;;3.78;78.60;100757.78;6152390;23;19916;-80
2023/01/30 00:39:35;;;;;;;;;;;4.90;93.60;;;3.76;78.83;100760.56;6154662;23;19986;-80
2023/01/30 00:47:38;;;;;;;;;;;4.90;93.50;;;3.82;78.53;100736.19;6153166;23;19920;-80
2023/01/30 00:50:05;;;;;;;;;;;4.90;93.90;;;3.83;78.79;100734.38;6154614;23;20261;-80
2023/01/30 00:52:32;;;;;;;;;;;4.90;93.80;;;3.82;79.02;100730.91;6152088;23;19982;-80
2023/01/30 00:54:59;;;;;;;;;;;4.90;94.00;;;3.83;79.31;100743.13;6151978;23;19921;-80
2023/01/30 00:57:28;;;;;;;;;;;4.90;94.20;;;3.83;79.46;100731.75;6151140;23;20295;-80
2023/01/30 00:59:55;;;;;;;;;;;4.90;94.40;;;3.83;79.24;100721.19;6152188;23;19927;-80
2023/01/30 01:02:22;;;;;;;;;;;4.90;94.40;;;3.87;79.28;100720.69;6152031;23;19963;-80
2023/01/30 01:04:49;;;;;;;;;;;4.90;94.50;;;3.87;79.53;100725.97;6151194;23;19916;-80
2023/01/30 01:07:16;;;;;;;;;;;4.90;94.50;;;3.85;79.93;100724.47;6151349;23;19927;-80
2023/01/30 01:09:43;;;;;;;;;;;4.90;94.70;;;3.82;79.67;100712.44;6151959;23;20288;-80
2023/01/30 01:12:09;;;;;;;;;;;4.90;94.80;;;3.83;80.20;100703.53;6150908;23;19935;-80
2023/01/30 01:14:38;;;;;;;;;;;4.90;94.90;;;3.84;79.99;100702.53;6153481;23;19920;-80
2023/01/30 01:17:05;;;;;;;;;;;4.90;94.90;;;3.86;80.25;100691.84;6153277;23;19921;-80
2023/01/30 01:19:32;;;;;;;;;;;4.90;94.90;;;3.87;79.75;100680.31;6154087;23;20255;-80
2023/01/30 01:21:59;;;;;;;;;;;5.00;94.80;;;3.91;79.89;100686.91;6150636;23;19923;-80
2023/01/30 01:24:27;;;;;;;;;;;5.00;94.80;;;3.93;80.46;100695.47;6151561;23;19920;-80
2023/01/30 01:26:54;;;;;;;;;;;5.00;95.20;;;3.93;80.62;100699.94;6152840;23;19917;-80
2023/01/30 01:29:21;;;;;;;;;;;5.00;95.40;;;3.93;80.64;100705.22;6153557;23;20342;-80
2023/01/30 01:31:49;;;;;;;;;;;5.00;95.60;;;3.96;81.15;100710.19;6152896;23;19920;-78
2023/01/30 01:34:16;;;;;;;;;;;5.10;96.10;;;3.99;80.96;100700.09;6151084;23;20343;-80
2023/01/30 01:36:44;;;;;;;;;;;5.10;95.80;;;3.99;81.13;100702.75;6153007;23;19922;-80
2023/01/30 01:39:11;;;;;;;;;;;5.10;95.80;;;4.03;80.94;100695.34;6151228;23;19926;-80
2023/01/30 01:41:37;;;;;;;;;;;5.20;95.60;;;4.04;81.18;100687.25;6152827;23;19926;-80
2023/01/30 01:44:06;;;;;;;;;;;5.20;95.60;;;4.09;81.19;100703.41;6151395;23;20329;-80
2023/01/30 01:46:36;;;;;;;;;;;5.20;95.70;;;4.10;81.06;100702.44;6153167;23;20008;-80
2023/01/30 01:49:07;;;;;;;;;;;5.20;95.90;;;4.10;81.14;100677.88;6152064;23;19944;-80
2023/01/30 01:51:37;;;;;;;;;;;5.50;96.20;;;4.11;81.23;100680.34;6151212;23;20003;-80
2023/01/30 01:54:08;;;;;;;;;;;5.20;96.20;;;4.11;81.72;100687.44;6152953;23;20003;-80
2023/01/30 01:56:38;;;;;;;;;;;5.20;96.40;;;4.12;81.92;100679.34;6152363;23;20007;-80
2023/01/30 01:59:09;;;;;;;;;;;5.20;96.60;;;4.11;81.88;100672.41;6151584;23;20441;-80
2023/01/30 02:01:35;;;;;;;;;;;5.20;96.50;;;4.14;82.29;100679.16;6153345;23;19926;-80
2023/01/30 02:04:07;;;;;;;;;;;5.20;96.60;;;4.14;82.17;100669.44;6152610;23;19947;-80
2023/01/30 02:06:36;;;;;;;;;;;5.30;96.70;;;4.14;82.02;100677.34;6150932;23;19917;-80
2023/01/30 02:09:06;;;;;;;;;;;5.30;96.80;;;4.13;82.49;100659.06;6151451;23;19947;-80
2023/01/30 02:11:38;;;;;;;;;;;5.20;96.80;;;4.15;82.66;100657.09;6152346;23;19996;-80
2023/01/30 02:14:06;;;;;;;;;;;5.30;96.80;;;4.19;82.29;100647.81;6152020;23;19920;-80
2023/01/30 02:16:35;;;;;;;;;;;5.30;96.80;;;4.22;82.33;100650.16;6151089;23;19917;-80
2023/01/30 02:19:09;;;;;;;;;;;5.30;96.70;;;4.23;82.43;100640.41;6152919;23;19943;-80
2023/01/30 02:22:14;;;;;;;;;;;5.30;96.80;;;4.24;81.96;100636.78;6151178;23;19920;-80
2023/01/30 02:24:55;;;;;;;;;;;5.30;96.60;;;4.23;82.25;100625.41;6150561;23;19920;-80
2023/01/30 02:28:00;;;;;;;;;;;5.40;96.80;;;4.23;82.51;100603.44;6150872;23;19923;-80
2023/01/30 02:31:06;;;;;;;;;;;5.40;96.80;;;4.20;82.94;100603.78;6143813;23;19924;-80
2023/01/30 02:33:40;;;;;;;;;;;5.30;97.00;;;4.20;82.78;100606.41;6150770;23;19924;-80
2023/01/30 02:36:15;;;;;;;;;;;5.30;97.20;;;4.19;83.09;100588.94;6150739;23;19920;-80
2023/01/30 02:38:49;;;;;;;;;;;5.30;97.20;;;4.22;83.33;100594.72;6152743;23;19921;-80
2023/01/30 02:41:25;;;;;;;;;;;5.30;97.30;;;4.22;83.13;100584.16;6150561;23;19920;-80
2023/01/30 02:43:59;;;;;;;;;;;5.30;97.40;;;4.23;83.18;100577.06;6150351;23;19924;-80
2023/01/30 02:46:34;;;;;;;;;;;5.30;97.50;;;4.22;83.56;100576.22;6150286;23;20351;-80
2023/01/30 02:49:07;;;;;;;;;;;5.40;97.40;;;4.27;83.63;100581.84;6152192;23;19948;-80
2023/01/30 02:51:36;;;;;;;;;;;5.40;97.50;;;4.30;83.67;100559.56;6151193;23;19999;-80
2023/01/30 02:54:05;;;;;;;;;;;5.40;97.60;;;4.32;83.42;100573.41;6150557;23;20340;-80
2023/01/30 02:56:46;;;;;;;;;;;5.40;97.70;;;4.32;83.72;100568.13;6150592;23;19921;-80
2023/01/30 02:59:15;;;;;;;;;;;5.40;97.70;;;4.32;83.75;100574.25;6150937;23;20003;-80
2023/01/30 03:02:13;;;;;;;;;;;5.40;97.70;;;4.37;83.44;100568.47;6151201;23;20343;-80
2023/01/30 03:05:05;;;;;;;;;;;5.50;97.90;;;4.38;83.65;100570.09;6150845;23;20331;-80
2023/01/30 03:07:41;;;;;;;;;;;5.50;97.90;;;4.38;83.54;100563.00;6113984;23;20304;-80
2023/01/30 03:10:16;;;;;;;;;;;5.50;97.90;;;4.41;83.57;100555.75;6152605;23;20347;-80
2023/01/30 03:12:54;;;;;;;;;;;5.50;97.70;;;4.44;83.28;100572.09;6150038;23;20406;-76
2023/01/30 03:15:25;;;;;;;;;;;5.50;97.60;;;4.47;83.42;100558.53;6152051;23;19920;-76
2023/01/30 03:17:54;;;;;;;;;;;5.50;97.70;;;4.46;83.62;100562.16;6149710;23;20343;-76
2023/01/30 03:20:21;;;;;;;;;;;5.60;97.60;;;4.48;83.41;100552.25;6150623;23;19956;-77
2023/01/30 03:22:48;;;;;;;;;;;5.60;97.50;;;4.47;83.18;100550.59;6151816;23;19939;-76
2023/01/30 03:25:20;;;;;;;;;;;5.60;97.70;;;4.48;83.27;100541.69;6150295;23;20659;-76
2023/01/30 03:27:48;;;;;;;;;;;5.60;97.70;;;4.49;83.57;100545.16;6150133;23;19920;-76
2023/01/30 03:30:16;;;;;;;;;;;5.60;98.00;;;4.50;83.65;100533.63;6150652;23;19917;-76
2023/01/30 03:32:43;;;;;;;;;;;5.60;97.90;;;4.47;83.71;100534.75;6150223;23;20353;-76
2023/01/30 03:35:11;;;;;;;;;;;5.60;98.10;;;4.45;84.35;100535.94;6151940;23;19925;-76
2023/01/30 03:37:38;;;;;;;;;;;5.60;98.30;;;4.44;84.30;100532.47;6151655;23;19957;-76
2023/01/30 03:40:06;;;;;;;;;;;5.60;98.20;;;4.47;84.75;100528.66;6150477;23;19938;-76
2023/01/30 03:42:34;;;;;;;;;;;5.60;98.50;;;4.48;84.56;100510.00;6149958;23;19921;-76
2023/01/30 03:45:00;;;;;;;;;;;5.60;98.40;;;4.46;84.67;100508.53;6150539;23;20322;-76
2023/01/30 03:47:27;;;;;;;;;;;5.60;98.50;;;4.48;84.85;100504.72;6149862;23;19947;-76
2023/01/30 03:49:55;;;;;;;;;;;5.60;98.50;;;4.48;84.84;100515.28;6150361;23;19936;-76
2023/01/30 03:52:24;;;;;;;;;;;5.60;98.60;;;4.50;84.69;100517.78;6149832;23;20522;-76
2023/01/30 03:54:51;;;;;;;;;;;5.60;98.60;;;4.53;84.70;100502.38;6150336;23;19916;-76
2023/01/30 03:57:18;;;;;;;;;;;5.60;98.50;;;4.55;84.84;100497.78;6150100;23;20008;-76
2023/01/30 03:59:45;;;;;;;;;;;5.60;98.70;;;4.55;84.87;100481.09;6149530;23;19963;-76
2023/01/30 04:02:19;;;;;;;;;;;5.60;98.90;;;4.54;84.93;100484.72;6150265;23;20315;-76
2023/01/30 04:04:47;;;;;;;;;;;5.60;98.90;;;4.54;84.97;100468.88;6149204;23;20003;-76
2023/01/30 04:07:14;;;;;;;;;;;5.60;99.00;;;4.57;85.15;100492.31;6151987;23;19921;-76
2023/01/30 04:09:43;;;;;;;;;;;5.60;99.00;;;4.58;85.49;100478.91;6150142;23;19940;-76
2023/01/30 04:12:11;;;;;;;;;;;5.60;99.10;;;4.59;85.21;100490.34;6149744;23;19916;-76
2023/01/30 04:14:46;;;;;;;;;;;5.60;99.10;;;4.60;85.69;100490.16;6150112;23;19917;-76
2023/01/30 04:17:22;;;;;;;;;;;5.70;99.10;;;4.60;85.57;100490.16;6149883;23;19962;-76
2023/01/30 04:20:19;;;;;;;;;;;5.70;99.50;;;4.64;85.95;100488.81;6149009;23;19920;-76
2023/01/30 04:22:51;;;;;;;;;;;5.70;99.70;;;4.62;85.89;100482.88;6149859;23;20003;-76
2023/01/30 04:25:19;;;;;;;;;;;5.70;99.80;;;4.65;86.36;100477.25;6149991;23;19971;-76
2023/01/30 04:27:46;;;;;;;;;;;5.70;99.90;;;4.66;86.63;100483.34;6149567;23;19923;-76
2023/01/30 04:30:20;;;;;;;;;;;5.70;99.90;;;4.67;86.49;100470.97;6150348;23;19948;-76
2023/01/30 04:32:50;;;;;;;;;;;5.70;99.90;;;4.68;86.64;100484.00;6149815;23;19924;-76
2023/01/30 04:35:17;;;;;;;;;;;5.80;99.90;;;4.71;86.70;100467.00;6150302;23;19921;-76
2023/01/30 04:37:44;;;;;;;;;;;5.80;99.90;;;4.68;87.08;100465.50;6151632;23;19920;-76
2023/01/30 04:40:15;;;;;;;;;;;5.80;99.90;;;4.70;87.16;100465.34;6150379;23;20500;-76
2023/01/30 04:42:43;;;;;;;;;;;5.70;99.90;;;4.75;87.03;100463.00;6174876;23;19955;-76
2023/01/30 04:45:29;;;;;;;;;;;5.80;99.90;;;4.78;86.88;100473.22;6152179;23;19927;-76
2023/01/30 04:47:56;;;;;;;;;;;5.80;99.90;;;4.77;87.18;100466.28;6151748;23;19932;-76
2023/01/30 04:50:24;;;;;;;;;;;5.80;99.90;;;4.78;87.57;100460.00;6151970;23;20244;-76
2023/01/30 04:52:51;;;;;;;;;;;5.80;99.90;;;4.78;87.51;100467.94;6153027;23;19999;-76
2023/01/30 04:55:18;;;;;;;;;;;5.80;99.90;;;4.78;87.60;100475.84;6151424;23;19927;-76
2023/01/30 04:57:46;;;;;;;;;;;5.90;99.90;;;4.78;88.15;100465.28;6153188;23;20263;-76
2023/01/30 05:00:14;;;;;;;;;;;5.90;99.90;;;4.80;87.79;100455.38;6151982;23;20344;-76
2023/01/30 05:02:49;;;;;;;;;;;5.90;99.90;;;4.81;87.77;100449.91;6176483;23;19954;-76
2023/01/30 05:05:16;;;;;;;;;;;5.90;99.90;;;4.84;88.07;100462.78;6153319;23;19920;-76
2023/01/30 05:07:43;;;;;;;;;;;5.90;99.90;;;4.86;87.49;100455.50;6153056;23;19920;-76
2023/01/30 05:10:11;;;;;;;;;;;6.00;99.90;;;4.87;88.25;100451.84;6153604;23;19925;-76
2023/01/30 05:12:38;;;;;;;;;;;5.90;99.90;;;4.91;87.55;100449.69;6153147;23;19927;-76
2023/01/30 05:15:07;;;;;;;;;;;6.00;99.90;;;4.91;87.85;100447.88;6153559;23;20263;-76
2023/01/30 05:17:35;;;;;;;;;;;6.00;99.90;;;4.92;88.06;100453.97;6152181;23;20154;-76
2023/01/30 05:20:02;;;;;;;;;;;6.00;99.90;;;4.95;87.79;100447.53;6151773;23;19921;-76
2023/01/30 05:22:29;;;;;;;;;;;6.00;99.90;;;4.95;88.13;100440.44;6152854;23;19927;-76
2023/01/30 05:24:56;;;;;;;;;;;6.00;99.90;;;4.96;88.59;100443.88;6152419;23;19920;-76
2023/01/30 05:27:23;;;;;;;;;;;6.00;99.90;;;4.97;88.84;100434.97;6152922;23;20349;-76
2023/01/30 05:29:50;;;;;;;;;;;6.00;99.90;;;4.97;88.77;100438.41;6152995;23;20509;-76
2023/01/30 05:32:19;;;;;;;;;;;6.10;99.90;;;4.99;88.90;100428.50;6152840;23;19917;-76
2023/01/30 05:34:46;;;;;;;;;;;6.10;99.90;;;5.00;88.83;100427.50;6153167;23;19923;-76
2023/01/30 05:37:13;;;;;;;;;;;6.10;99.90;;;5.01;88.90;100431.78;6151765;23;19920;-76
2023/01/30 05:39:40;;;;;;;;;;;6.10;99.90;;;5.03;88.79;100435.09;6153003;23;19990;-76
2023/01/30 05:42:07;;;;;;;;;;;6.10;99.90;;;5.02;89.40;100440.53;6152570;23;20353;-76
2023/01/30 05:44:33;;;;;;;;;;;6.10;99.90;;;5.04;89.41;100433.28;6151653;23;20064;-76
2023/01/30 05:47:00;;;;;;;;;;;6.10;99.90;;;5.04;89.71;100426.16;6152670;23;19924;-76
2023/01/30 05:49:29;;;;;;;;;;;6.10;99.90;;;5.06;89.61;100445.31;6153194;23;19940;-76
2023/01/30 05:51:56;;;;;;;;;;;6.10;99.90;;;5.08;89.60;100437.22;6153586;23;20252;-76
2023/01/30 05:54:23;;;;;;;;;;;6.20;99.90;;;5.11;89.75;100445.59;6152289;23;19927;-76
2023/01/30 05:56:50;;;;;;;;;;;6.20;99.90;;;5.10;89.92;100432.56;6152827;23;19924;-76
2023/01/30 05:59:18;;;;;;;;;;;6.20;99.90;;;5.12;90.07;100436.69;6152530;23;19925;-76
2023/01/30 06:01:45;;;;;;;;;;;6.20;99.90;;;5.15;90.23;100438.97;6152646;23;19921;-76
2023/01/30 06:04:12;;;;;;;;;;;6.20;99.90;;;5.15;90.27;100430.22;6152559;23;20323;-76
2023/01/30 06:06:40;;;;;;;;;;;6.20;99.90;;;5.16;90.35;100443.25;6152025;23;19921;-76
2023/01/30 06:09:07;;;;;;;;;;;6.20;99.90;;;5.19;90.65;100451.84;6153014;23;20358;-76
2023/01/30 06:11:34;;;;;;;;;;;6.30;99.90;;;5.18;90.75;100458.13;6152697;23;19920;-76
2023/01/30 06:14:01;;;;;;;;;;;6.30;99.90;;;5.22;91.02;100464.69;6153381;23;20470;-77
2023/01/30 06:16:28;;;;;;;;;;;6.30;99.90;;;5.24;91.24;100468.00;6151613;23;19924;-76
2023/01/30 06:18:55;;;;;;;;;;;6.30;99.90;;;5.24;91.40;100460.06;6152519;23;19926;-78
2023/01/30 06:21:22;;;;;;;;;;;6.30;99.90;;;5.25;92.10;100462.53;6152986;23;19923;-82
2023/01/30 06:23:51;;;;;;;;;;;6.30;99.90;;;5.27;91.90;100457.03;6152701;23;19921;-83
2023/01/30 06:26:18;;;;;;;;;;;6.30;99.90;;;5.31;91.80;100445.13;6152480;23;19923;-85
2023/01/30 06:28:45;;;;;;;;;;;6.40;99.90;;;5.33;91.50;100453.72;6152800;23;19959;-84
2023/01/30 06:31:11;;;;;;;;;;;6.40;99.90;;;5.36;91.25;100440.13;6152476;23;19920;-83
2023/01/30 06:33:38;;;;;;;;;;;6.40;99.90;;;5.39;91.34;100443.25;6152369;23;19920;-84
2023/01/30 06:36:06;;;;;;;;;;;6.50;99.90;;;5.39;91.19;100447.72;6152460;23;19920;-85
2023/01/30 06:38:33;;;;;;;;;;;6.50;99.90;;;5.42;91.54;100452.66;6150955;23;19923;-84
2023/01/30 06:41:01;;;;;;;;;;;6.50;99.90;;;5.43;91.25;100451.66;6151686;23;19920;-85
2023/01/30 06:43:28;;;;;;;;;;;6.50;99.90;;;5.46;91.38;100472.44;6152640;23;19916;-82
2023/01/30 06:45:58;;;;;;;;;;;6.50;99.90;;;5.48;91.43;100473.09;6152215;23;19935;-83
2023/01/30 06:48:24;;;;;;;;;;;6.60;99.90;;;5.50;91.64;100486.13;6152335;23;19921;-83
2023/01/30 06:50:51;;;;;;;;;;;6.60;99.90;;;5.51;91.28;100472.72;6151994;23;19980;-84
2023/01/30 06:53:19;;;;;;;;;;;6.60;99.90;;;5.51;91.22;100475.38;6152377;23;20561;-83
2023/01/30 06:55:46;;;;;;;;;;;6.60;99.90;;;5.53;91.37;100486.59;6152381;23;19920;-82
2023/01/30 06:58:14;;;;;;;;;;;6.60;99.90;;;5.50;91.47;100486.94;6152311;23;20250;-82
2023/01/30 07:00:42;;;;;;;;;;;6.60;99.90;;;5.54;91.31;100485.59;6152106;23;19924;-83
2023/01/30 07:03:11;;;;;;;;;;;6.60;99.90;;;5.56;91.44;100482.75;6152650;23;20410;-84
2023/01/30 07:05:38;;;;;;;;;;;6.70;99.90;;;5.58;91.59;100486.06;6151106;23;19917;-82
2023/01/30 07:08:05;;;;;;;;;;;6.70;99.90;;;5.57;91.28;100493.19;6152119;23;19921;-85
2023/01/30 07:10:32;;;;;;;;;;;6.70;99.90;;;5.59;91.26;100491.19;6150109;23;19995;-85
2023/01/30 07:13:00;;;;;;;;;;;6.70;99.90;;;5.61;91.04;100486.53;6151756;23;19920;-84
2023/01/30 07:15:28;;;;;;;;;;;6.70;99.90;;;5.63;91.44;100478.41;6151835;23;19926;-86
2023/01/30 07:17:55;;;;;;;;;;;6.70;99.90;;;5.65;91.10;100476.41;6150802;23;19921;-85
2023/01/30 07:20:22;;;;;;;;;;;6.70;99.90;;;5.66;91.08;100473.59;6149248;23;19928;-85
2023/01/30 07:22:50;;;;;;;;;;;6.70;99.90;;;5.68;91.18;100468.13;6149154;23;19916;-85
2023/01/30 07:25:17;;;;;;;;;;;6.70;99.90;;;5.68;90.78;100466.28;6150124;23;20343;-85
2023/01/30 07:27:50;;;;;;;;;;;6.80;99.90;;;5.71;90.70;100461.63;6150097;23;20019;-85
2023/01/30 07:30:17;;;;;;;;;;;6.80;99.90;;;5.69;90.44;100467.13;6151476;23;20053;-86
2023/01/30 07:32:49;;;;;;;;;;;6.80;99.90;;;5.69;90.38;100469.75;6149475;23;19921;-85
2023/01/30 07:35:16;;;;;;;;;;;6.80;99.90;;;5.67;89.62;100488.47;6149936;23;19920;-82
2023/01/30 07:37:45;;;;;;;;;;;6.70;99.90;;;5.67;89.54;100488.47;6151728;23;19923;-84
2023/01/30 07:40:13;;;;;;;;;;;6.70;99.90;;;5.68;89.57;100490.09;6151981;23;19924;-83
2023/01/30 07:42:40;;;;;;;;;;;6.80;99.90;;;5.71;89.26;100496.03;6151312;23;20011;-82
2023/01/30 07:45:08;;;;;;;;;;;6.80;99.90;;;5.66;89.29;100515.94;6150998;23;19927;-84
2023/01/30 07:47:35;;;;;;;;;;;6.80;99.90;;;5.69;89.18;100512.91;6150213;23;19920;-84
2023/01/30 07:50:05;;;;;;;;;;;6.80;99.90;;;5.72;88.73;100513.56;6151968;23;20007;-84
2023/01/30 07:52:33;;;;;;;;;;;6.80;99.90;;;5.72;88.65;100510.94;6149767;23;19920;-83
2023/01/30 07:55:00;;;;;;;;;;;6.80;99.90;;;5.74;89.04;100522.16;6152260;23;19920;-84
2023/01/30 07:57:27;;;;;;;;;;;6.80;99.90;;;5.77;88.71;100522.63;6151331;23;19924;-84
2023/01/30 07:59:54;;;;;;;;;;;6.80;99.90;;;5.78;88.52;100521.63;6150326;23;19923;-84
2023/01/30 08:02:21;;;;;;;;;;;6.90;99.90;;;5.79;88.53;100527.72;6151692;23;19921;-84
2023/01/30 08:04:48;;;;;;;;;;;6.90;99.90;;;5.82;88.24;100524.72;6151469;23;19995;-83
2023/01/30 08:07:16;;;;;;;;;;;6.90;99.90;;;5.83;88.57;100534.31;6151697;23;19927;-84
2023/01/30 08:09:43;;;;;;;;;;;6.90;99.90;;;5.84;88.07;100528.00;6152013;23;19916;-83
2023/01/30 08:12:10;;;;;;;;;;;6.90;99.90;;;5.85;87.62;100527.00;6151644;23;19926;-84
2023/01/30 08:14:37;;;;;;;;;;;6.90;99.90;;;5.84;87.60;100525.38;6151456;23;20259;-84
2023/01/30 08:17:04;;;;;;;;;;;7.00;99.90;;;5.85;87.44;100529.66;6151830;23;19916;-84
2023/01/30 08:19:31;;;;;;;;;;;6.90;99.90;;;5.83;87.28;100529.84;6151612;23;19927;-84
2023/01/30 08:21:59;;;;;;;;;;;6.90;99.90;;;5.87;87.41;100532.97;6152424;23;19923;-84
2023/01/30 08:24:27;;;;;;;;;;;6.90;99.90;;;5.89;87.23;100534.41;6153142;23;20264;-84
2023/01/30 08:26:54;;;;;;;;;;;7.00;99.90;;;5.90;87.17;100537.88;6153153;23;19922;-84
2023/01/30 08:29:21;;;;;;;;;;;7.00;99.90;;;5.90;87.31;100549.31;6151246;23;19920;-84
2023/01/30 08:31:49;;;;;;;;;;;7.00;99.90;;;5.91;87.31;100544.84;6152601;23;19923;-83
2023/01/30 08:34:16;;;;;;;;;;;7.00;99.90;;;5.93;87.08;100543.66;6151478;23;20003;-84
2023/01/30 08:36:45;;;;;;;;;;;7.00;99.90;;;5.94;86.43;100539.19;6151993;23;19999;-85
2023/01/30 08:39:12;;;;;;;;;;;7.00;99.70;;;5.93;86.24;100538.38;6152574;23;19920;-84
2023/01/30 08:41:42;;;;;;;;;;;7.00;99.60;;;5.98;86.21;100552.91;6152772;23;19916;-84
2023/01/30 08:44:09;;;;;;;;;;;7.00;99.70;;;5.99;85.85;100562.50;6152627;23;19920;-84
2023/01/30 08:46:36;;;;;;;;;;;7.00;99.30;;;5.98;85.69;100566.97;6151526;23;19920;-84
2023/01/30 08:49:03;;;;;;;;;;;7.00;99.30;;;5.99;85.77;100565.97;6153175;23;19924;-83
2023/01/30 08:51:30;;;;;;;;;;;7.10;99.30;;;6.00;84.86;100562.31;6152163;23;20386;-84
2023/01/30 08:53:57;;;;;;;;;;;7.10;98.70;;;5.99;85.34;100550.06;6153081;23;20332;-84
2023/01/30 08:56:24;;;;;;;;;;;7.10;98.90;;;5.98;84.62;100568.78;6153013;23;19916;-83
2023/01/30 08:58:52;;;;;;;;;;;7.10;98.50;;;5.99;84.29;100558.00;6153254;23;20015;-83
2023/01/30 09:01:20;;;;;;;;;;;7.00;98.20;;;5.96;83.46;100552.28;6151744;23;19924;-84
2023/01/30 09:03:47;;;;;;;;;;;7.00;97.50;;;5.97;83.47;100573.25;6152662;23;20358;-83
2023/01/30 09:06:14;;;;;;;;;;;7.00;97.70;;;5.99;83.52;100570.44;6151693;23;19927;-83
2023/01/30 09:08:42;;;;;;;;;;;7.10;97.80;;;5.99;82.99;100562.50;6153081;23;19927;-84
2023/01/30 09:11:10;;;;;;;;;;;7.20;97.20;;;6.00;82.00;100572.06;6152218;23;19917;-84
2023/01/30 09:13:42;;;;;;;;;;;7.10;96.30;;;5.97;80.99;100569.78;6150607;23;19916;-76
2023/01/30 09:16:10;;;;;;;;;;;7.10;95.80;;;5.99;80.72;100571.25;6151630;23;19920;-76
2023/01/30 09:18:39;;;;;;;;;;;7.10;95.90;;;6.00;80.18;100572.06;6152859;23;20019;-75
2023/01/30 09:21:06;;;;;;;;;;;7.10;95.60;;;5.99;80.52;100568.59;6150996;23;20394;-76
2023/01/30 09:23:34;;;;;;;;;;;7.10;95.70;;;5.98;78.98;100574.91;6152991;23;20007;-75
2023/01/30 09:26:01;;;;;;;;;;;7.00;94.80;;;5.98;79.93;100572.25;6151041;23;19920;-76
2023/01/30 09:28:28;;;;;;;;;;;7.00;95.00;;;5.97;79.53;100586.50;6153320;23;19927;-76
2023/01/30 09:30:57;;;;;;;;;;;7.00;94.80;;;5.98;79.96;100588.13;6152247;23;19999;-76
2023/01/30 09:33:26;;;;;;;;;;;7.00;95.40;;;5.99;79.58;100589.78;6152084;23;19987;-76
2023/01/30 09:35:53;;;;;;;;;;;7.00;94.70;;;5.99;79.45;100595.06;6150593;23;19920;-76
2023/01/30 09:38:23;;;;;;;;;;;7.00;94.70;;;6.00;79.56;100593.25;6152539;23;19924;-76
2023/01/30 09:41:00;;;;;;;;;;;7.10;95.00;;;5.99;79.92;100603.00;6152715;23;19921;-75
2023/01/30 09:43:39;;;;;;;;;;;7.30;95.20;;;6.00;79.15;100599.34;6152598;23;19935;-75
2023/01/30 09:46:12;;;;;;;;;;;7.10;94.70;;;6.00;78.43;100585.31;6152600;23;19923;-76
2023/01/30 09:48:47;;;;;;;;;;;7.10;93.90;;;6.02;78.43;100594.72;6151085;23;20019;-75
2023/01/30 09:51:42;;;;;;;;;;;7.10;94.20;;;6.01;77.74;100597.56;6152571;23;19920;-75
2023/01/30 09:54:23;;;;;;;;;;;7.10;93.40;;;6.03;78.04;100587.59;6152205;23;19959;-76
2023/01/30 09:56:58;;;;;;;;;;;7.10;94.00;;;6.06;78.12;100597.84;6152023;23;19981;-76
2023/01/30 09:59:30;;;;;;;;;;;7.10;94.00;;;6.06;78.24;100601.31;6151184;23;19916;-76
2023/01/30 10:02:05;;;;;;;;;;;7.20;93.80;;;6.08;78.11;100615.19;6153041;23;19920;-76
2023/01/30 10:04:34;;;;;;;;;;;7.10;93.60;;;6.05;77.19;100618.22;6152556;23;19920;-76
2023/01/30 10:07:13;;;;;;;;;;;7.20;93.00;;;6.06;77.12;100611.09;6150933;23;19921;-76
2023/01/30 10:09:46;;;;;;;;;;;7.20;93.00;;;6.06;76.16;100606.63;6152020;23;19971;-75
2023/01/30 10:12:28;;;;;;;;;;;7.20;92.20;;;6.09;76.09;100621.31;6150906;23;19920;-76
2023/01/30 10:15:09;;;;;;;;;;;7.20;92.10;;;6.06;74.08;100625.16;6152564;23;19938;-75
2023/01/30 10:17:47;;;;;;;;;;;7.20;91.00;;;6.08;74.38;100620.47;6152076;23;19917;-76
2023/01/30 10:20:30;;;;;;;;;;;7.20;91.20;;;6.10;74.22;100633.53;6151786;23;19920;-76
2023/01/30 10:23:10;;;;;;;;;;;7.10;91.10;;;6.11;73.70;100625.44;6151828;23;19927;-76
2023/01/30 10:25:42;;;;;;;;;;;7.20;90.80;;;6.13;73.73;100622.59;6153047;23;19921;-76
2023/01/30 10:28:14;;;;;;;;;;;7.20;90.70;;;6.13;73.80;100623.41;6150361;23;19920;-76
2023/01/30 10:30:43;;;;;;;;;;;7.20;90.80;;;6.16;74.38;100620.44;6152214;23;19916;-76
2023/01/30 10:33:19;;;;;;;;;;;7.30;91.40;;;6.17;72.01;100621.25;6152241;23;19923;-76
2023/01/30 10:35:51;;;;;;;;;;;7.20;89.20;;;6.15;72.24;100623.25;6152623;23;19950;-76
2023/01/30 10:38:21;;;;;;;;;;;7.30;89.40;;;6.16;72.36;100614.31;6149120;23;19920;-77
2023/01/30 10:40:54;;;;;;;;;;;7.30;89.30;;;6.16;71.67;100615.13;6151698;23;19920;-76
2023/01/30 10:43:27;;;;;;;;;;;7.30;88.70;;;6.18;71.43;100623.69;6151932;23;20007;-77
2023/01/30 10:46:01;;;;;;;;;;;7.30;89.00;;;6.18;70.72;100607.00;6151460;23;19927;-76
2023/01/30 10:48:46;;;;;;;;;;;7.30;87.90;;;6.21;71.00;100605.84;6152123;23;19935;-77
2023/01/30 10:51:24;;;;;;;;;;;7.30;88.40;;;6.23;71.40;100612.56;6152101;23;19947;-78
2023/01/30 10:53:55;;;;;;;;;;;7.30;88.50;;;6.26;71.21;100612.22;6151526;23;19921;-77
2023/01/30 10:56:29;;;;;;;;;;;7.30;88.30;;;6.27;69.67;100605.94;6152393;23;19916;-77
2023/01/30 10:59:03;;;;;;;;;;;7.30;86.70;;;6.27;69.00;100621.00;6151143;23;20003;-77
2023/01/30 11:01:36;;;;;;;;;;;7.30;86.80;;;6.27;69.69;100610.41;6152288;23;19917;-76
2023/01/30 11:04:07;;;;;;;;;;;7.30;87.50;;;6.26;70.02;100608.75;6151327;23;19948;-77
2023/01/30 11:06:35;;;;;;;;;;;7.30;87.40;;;6.28;69.46;100614.69;6151847;23;19916;-76
2023/01/30 11:09:02;;;;;;;;;;;7.40;86.90;;;6.32;69.83;100618.63;6152786;23;19921;-76
2023/01/30 11:11:33;;;;;;;;;;;7.40;87.30;;;6.33;68.72;100626.38;6151226;23;19921;-77
2023/01/30 11:14:05;;;;;;;;;;;7.40;86.30;;;6.32;69.40;100622.09;6152608;23;20255;-77
2023/01/30 11:16:33;;;;;;;;;;;7.40;86.70;;;6.34;69.55;100625.38;6152047;23;19952;-76
2023/01/30 11:19:04;;;;;;;;;;;7.40;86.70;;;6.34;69.27;100622.72;6152565;23;20263;-76
2023/01/30 11:21:31;;;;;;;;;;;7.40;86.50;;;6.35;69.04;100627.06;6151387;23;19916;-76
2023/01/30 11:24:05;;;;;;;;;;;7.40;86.60;;;6.35;69.41;100631.53;6151170;23;20003;-76
2023/01/30 11:26:35;;;;;;;;;;;7.50;86.90;;;6.37;69.29;100630.31;6174932;23;20406;-76
2023/01/30 11:29:15;;;;;;;;;;;7.50;86.70;;;6.36;69.44;100626.03;6152120;23;19927;-76
2023/01/30 11:31:48;;;;;;;;;;;7.50;86.90;;;6.41;69.41;100630.81;6151608;23;20295;-76
2023/01/30 11:34:17;;;;;;;;;;;7.50;86.80;;;6.43;68.77;100624.31;6151611;23;19921;-76
2023/01/30 11:36:45;;;;;;;;;;;7.50;86.50;;;6.44;69.44;100618.03;6150247;23;19928;-76
2023/01/30 11:39:22;;;;;;;;;;;7.50;86.70;;;6.45;68.34;100617.00;6149728;23;19925;-76
2023/01/30 11:41:58;;;;;;;;;;;7.50;85.80;;;6.47;68.28;100618.66;6152007;23;19924;-77